Time;durP1;ratioP1;P1;durP2;ratioP2;P2;SDS_P1;SDS_P2;PMS_P1;PMS_P2;Temp;Humidity;BMP_temperature;BMP_pressure;BME280_temperature;BME280_humidity;BME280_pressure;Samples;Min_cycle;Max_cycle;Signal;HPM_P1;HPM_P2
2022/11/12 00:01:59;;;;;;;15.00;10.75;;;;;;;;;;5092331;28;20484;-83
2022/11/12 00:04:43;;;;;;;19.88;10.52;;;;;;;;;;5082439;28;20039;-83
2022/11/12 00:07:28;;;;;;;15.90;10.75;;;;;;;;;;5083542;28;20055;-83
2022/11/12 00:10:12;;;;;;;16.45;10.52;;;;;;;;;;5092191;28;20086;-83
2022/11/12 00:12:57;;;;;;;18.38;10.93;;;;;;;;;;5076770;28;20149;-83
2022/11/12 00:15:42;;;;;;;15.30;10.82;;;;;;;;;;5092370;28;20050;-83
2022/11/12 00:18:27;;;;;;;17.40;10.43;;;;;;;;;;5092345;28;20447;-83
2022/11/12 00:21:11;;;;;;;15.55;9.32;;;;;;;;;;5076699;28;20134;-83
2022/11/12 00:23:55;;;;;;;17.13;10.07;;;;;;;;;;5092119;28;20165;-84
2022/11/12 00:26:40;;;;;;;19.50;11.05;;;;;;;;;;5076922;28;20039;-83
2022/11/12 00:29:24;;;;;;;17.05;10.52;;;;;;;;;;5077290;28;20063;-82
2022/11/12 00:32:09;;;;;;;15.77;9.70;;;;;;;;;;5062614;28;20040;-83
2022/11/12 00:34:53;;;;;;;23.23;12.82;;;;;;;;;;5076660;28;20475;-83
2022/11/12 00:37:38;;;;;;;18.17;11.82;;;;;;;;;;5077043;28;20071;-83
2022/11/12 00:40:23;;;;;;;22.80;12.35;;;;;;;;;;5077178;28;20093;-83
2022/11/12 00:43:07;;;;;;;19.48;11.30;;;;;;;;;;5076278;28;20519;-83
2022/11/12 00:45:51;;;;;;;15.32;11.05;;;;;;;;;;5092263;28;20399;-82
2022/11/12 00:48:36;;;;;;;19.90;11.82;;;;;;;;;;5075403;28;20396;-83
2022/11/12 00:51:20;;;;;;;21.10;12.13;;;;;;;;;;5089715;28;20537;-83
2022/11/12 00:54:05;;;;;;;15.68;10.95;;;;;;;;;;5062119;28;20140;-83
2022/11/12 00:56:50;;;;;;;18.50;11.15;;;;;;;;;;5092042;28;20056;-83
2022/11/12 00:59:34;;;;;;;21.83;11.80;;;;;;;;;;5091796;28;20069;-83
2022/11/12 01:02:19;;;;;;;18.83;11.98;;;;;;;;;;5091712;28;20050;-83
2022/11/12 01:05:04;;;;;;;20.13;12.02;;;6.20;99.90;;;;;;5091740;28;20038;-83
2022/11/12 01:07:48;;;;;;;21.25;12.90;;;;;;;;;;5091881;28;20499;-82
2022/11/12 01:10:35;;;;;;;20.92;12.40;;;6.30;99.90;;;;;;5076843;28;20046;-83
2022/11/12 01:13:20;;;;;;;23.52;11.52;;;;;;;;;;5085985;28;20422;-83
2022/11/12 01:16:09;;;;;;;19.48;11.90;;;6.20;99.90;;;;;;5099238;28;20046;-83
2022/11/12 01:18:57;;;;;;;20.77;12.60;;;6.20;99.90;;;;;;5095491;28;20097;-83
2022/11/12 01:21:43;;;;;;;19.15;12.05;;;6.20;99.90;;;;;;5095023;28;20039;-83
2022/11/12 01:24:27;;;;;;;18.55;12.30;;;;;;;;;;5079191;28;20407;-82
2022/11/12 01:27:12;;;;;;;22.75;12.95;;;;;;;;;;5091714;28;20059;-83
2022/11/12 01:29:56;;;;;;;22.10;13.23;;;;;;;;;;5079826;28;20548;-83
2022/11/12 01:32:41;;;;;;;24.60;15.18;;;;;;;;;;5095162;28;20047;-83
2022/11/12 01:35:25;;;;;;;25.52;13.93;;;;;;;;;;5079208;28;20379;-83
2022/11/12 01:38:10;;;;;;;26.80;14.68;;;;;;;;;;5079328;28;20081;-82
2022/11/12 01:40:54;;;;;;;23.40;14.63;;;;;;;;;;5074791;28;20065;-83
2022/11/12 01:43:39;;;;;;;32.35;15.00;;;;;;;;;;5082019;28;20127;-83
2022/11/12 01:46:28;;;;;;;20.83;13.45;;;5.90;99.90;;;;;;5094514;28;20139;-83
2022/11/12 01:49:26;;;;;;;23.20;13.07;;;6.20;99.90;;;;;;5108761;28;20434;-83
2022/11/12 01:52:25;;;;;;;25.15;15.07;;;5.90;99.90;;;;;;5094443;28;20513;-83
2022/11/12 01:55:14;;;;;;;28.13;15.45;;;6.10;99.90;;;;;;5094424;28;20495;-84
2022/11/12 01:58:20;;;;;;;25.88;15.50;;;6.20;99.90;;;;;;5094548;28;20089;-83
2022/11/12 02:01:04;;;;;;;22.67;14.32;;;;;;;;;;5094633;28;20462;-83
2022/11/12 02:03:49;;;;;;;22.65;14.15;;;;;;;;;;5079272;28;20035;-82
2022/11/12 02:06:35;;;;;;;21.92;14.60;;;6.00;99.90;;;;;;5078791;28;20085;-83
2022/11/12 02:09:19;;;;;;;28.98;16.42;;;;;;;;;;5094049;28;20047;-83
2022/11/12 02:12:04;;;;;;;27.25;16.27;;;5.90;99.90;;;;;;5094409;28;20038;-83
2022/11/12 02:14:49;;;;;;;28.58;17.05;;;;;;;;;;5098474;28;20033;-83
2022/11/12 02:17:33;;;;;;;35.20;18.52;;;;;;;;;;5100797;28;20495;-83
2022/11/12 02:20:18;;;;;;;30.45;17.13;;;;;;;;;;5078749;28;20116;-83
2022/11/12 02:23:03;;;;;;;26.63;17.20;;;;;;;;;;5093644;28;20111;-82
2022/11/12 02:25:48;;;;;;;27.70;16.70;;;;;;;;;;5094087;28;20511;-82
2022/11/12 02:28:32;;;;;;;25.77;17.10;;;;;;;;;;5093591;28;20419;-83
2022/11/12 02:31:17;;;;;;;27.70;16.70;;;;;;;;;;5093734;28;20039;-83
2022/11/12 02:34:02;;;;;;;24.63;15.98;;;;;;;;;;5094116;28;20085;-83
2022/11/12 02:36:47;;;;;;;28.15;16.15;;;;;;;;;;5078409;28;20030;-83
2022/11/12 02:39:31;;;;;;;29.30;16.00;;;;;;;;;;5078205;28;20517;-83
2022/11/12 02:42:16;;;;;;;25.88;15.05;;;;;;;;;;5093364;28;20051;-85
2022/11/12 02:45:00;;;;;;;22.63;14.68;;;;;;;;;;5078403;28;20039;-83
2022/11/12 02:47:45;;;;;;;25.42;15.68;;;;;;;;;;5083794;28;20177;-83
2022/11/12 02:50:29;;;;;;;23.35;14.32;;;;;;;;;;5092834;28;20448;-83
2022/11/12 02:53:14;;;;;;;30.40;15.18;;;;;;;;;;5110145;28;20487;-83
2022/11/12 02:55:59;;;;;;;23.40;15.25;;;;;;;;;;5084296;28;20046;-82
2022/11/12 02:58:44;;;;;;;26.67;15.93;;;;;;;;;;5106752;28;20042;-82
2022/11/12 03:01:28;;;;;;;23.88;15.23;;;;;;;;;;5077657;28;20090;-83
2022/11/12 03:04:13;;;;;;;23.05;13.52;;;;;;;;;;5093434;28;20039;-83
2022/11/12 03:06:57;;;;;;;27.10;15.80;;;;;;;;;;5102440;28;20047;-82
2022/11/12 03:09:42;;;;;;;21.23;15.05;;;;;;;;;;5095422;28;20043;-82
2022/11/12 03:12:26;;;;;;;25.77;15.82;;;;;;;;;;5075571;28;20118;-83
2022/11/12 03:15:11;;;;;;;30.45;15.57;;;;;;;;;;5107229;28;20077;-82
2022/11/12 03:17:57;;;;;;;22.35;14.02;;;5.60;99.90;;;;;;5077870;28;20058;-83
2022/11/12 03:20:41;;;;;;;28.83;16.85;;;;;;;;;;5092685;28;20051;-83
2022/11/12 03:23:26;;;;;;;28.02;16.15;;;;;;;;;;5096627;28;20077;-83
2022/11/12 03:26:11;;;;;;;26.83;15.80;;;;;;;;;;5085434;28;20136;-82
2022/11/12 03:28:55;;;;;;;24.40;15.15;;;;;;;;;;5093072;28;20039;-83
2022/11/12 03:31:41;;;;;;;26.05;15.88;;;5.50;99.90;;;;;;5092447;28;20109;-82
2022/11/12 03:34:25;;;;;;;28.10;14.35;;;;;;;;;;5072878;28;20063;-83
2022/11/12 03:37:10;;;;;;;22.02;14.18;;;;;;;;;;5078563;28;20074;-83
2022/11/12 03:39:54;;;;;;;23.33;14.50;;;;;;;;;;5092995;28;20047;-83
2022/11/12 03:42:44;;;;;;;22.33;14.20;;;5.40;99.90;;;;;;5076852;28;20435;-83
2022/11/12 03:45:28;;;;;;;25.30;15.25;;;;;;;;;;5092273;28;20036;-83
2022/11/12 03:48:13;;;;;;;28.90;16.88;;;;;;;;;;5092818;28;20123;-83
2022/11/12 03:50:58;;;;;;;25.85;14.82;;;5.20;99.90;;;;;;5092992;28;20054;-82
2022/11/12 03:53:43;;;;;;;24.63;14.50;;;;;;;;;;5076762;28;20104;-83
2022/11/12 03:56:28;;;;;;;18.33;13.13;;;;;;;;;;5077490;28;20523;-82
2022/11/12 03:59:12;;;;;;;21.30;13.75;;;;;;;;;;5106833;28;20430;-82
2022/11/12 04:01:56;;;;;;;20.98;13.38;;;;;;;;;;5077653;28;20038;-82
2022/11/12 04:10:48;;;;;;;26.15;15.27;;;;;;;;;;5091911;28;20081;-83
2022/11/12 04:13:33;;;;;;;25.13;15.95;;;;;;;;;;5076764;28;20085;-83
2022/11/12 04:22:26;;;;;;;22.70;15.73;;;;;;;;;;5100074;28;20058;-82
2022/11/12 04:28:14;;;;;;;23.73;15.60;;;;;;;;;;5092442;28;20035;-83
2022/11/12 04:30:58;;;;;;;19.48;13.95;;;;;;;;;;5092639;28;20046;-83
2022/11/12 04:33:43;;;;;;;25.85;15.40;;;;;;;;;;5091922;28;20083;-83
2022/11/12 04:36:28;;;;;;;24.10;16.15;;;;;;;;;;5076889;28;20047;-82
2022/11/12 04:39:12;;;;;;;25.45;15.55;;;;;;;;;;5092332;28;20094;-82
2022/11/12 04:45:03;;;;;;;27.87;16.07;;;;;;;;;;5107356;28;20066;-82
2022/11/12 04:47:48;;;;;;;33.20;17.73;;;;;;;;;;5095683;28;20261;-83
2022/11/12 04:50:33;;;;;;;25.35;16.85;;;4.80;99.90;;;;;;5081277;28;20035;-82
2022/11/12 04:53:17;;;;;;;24.35;16.38;;;;;;;;;;5095980;28;20142;-83
2022/11/12 04:56:02;;;;;;;22.88;15.10;;;;;;;;;;5095649;28;20066;-83
2022/11/12 04:58:46;;;;;;;26.47;16.27;;;;;;;;;;5109537;28;20042;-83
2022/11/12 05:01:31;;;;;;;25.20;16.67;;;;;;;;;;5107742;28;20047;-82
2022/11/12 05:04:15;;;;;;;32.60;17.65;;;;;;;;;;5095698;28;20035;-82
2022/11/12 05:07:00;;;;;;;31.50;17.25;;;;;;;;;;5095379;28;20047;-83
2022/11/12 05:09:45;;;;;;;29.77;17.55;;;;;;;;;;5086290;28;20035;-83
2022/11/12 05:12:30;;;;;;;34.33;17.65;;;;;;;;;;5100833;28;20123;-83
2022/11/12 05:15:14;;;;;;;29.02;18.13;;;;;;;;;;5095649;28;20544;-83
2022/11/12 05:17:59;;;;;;;29.48;18.13;;;;;;;;;;5093987;28;20111;-82
2022/11/12 05:20:44;;;;;;;26.70;17.35;;;;;;;;;;5079759;28;20093;-83
2022/11/12 05:23:28;;;;;;;27.33;18.23;;;;;;;;;;5080182;28;20396;-82
2022/11/12 05:26:12;;;;;;;35.87;20.47;;;;;;;;;;5081757;28;20137;-83
2022/11/12 05:28:57;;;;;;;30.23;18.27;;;;;;;;;;5104825;28;20488;-82
2022/11/12 05:31:42;;;;;;;30.40;18.40;;;;;;;;;;5084708;28;20039;-82
2022/11/12 05:34:27;;;;;;;31.77;19.77;;;;;;;;;;5072458;28;20495;-82
2022/11/12 05:37:13;;;;;;;29.83;18.37;;;4.70;99.90;;;;;;5079897;28;20086;-83
2022/11/12 05:39:58;;;;;;;30.63;18.00;;;;;;;;;;5079319;28;20415;-83
2022/11/12 05:42:44;;;;;;;29.92;18.95;;;4.70;99.90;;;;;;5094797;28;20038;-83
2022/11/12 05:45:29;;;;;;;31.67;19.30;;;;;;;;;;5095148;28;20027;-82
2022/11/12 05:48:13;;;;;;;25.90;17.70;;;;;;;;;;5095854;28;20392;-82
2022/11/12 05:50:58;;;;;;;25.20;16.00;;;;;;;;;;5112400;28;20520;-82
2022/11/12 05:53:42;;;;;;;38.20;18.83;;;;;;;;;;5096681;28;20082;-82
2022/11/12 05:56:27;;;;;;;23.52;16.10;;;;;;;;;;5077321;28;20460;-83
2022/11/12 05:59:12;;;;;;;27.25;17.25;;;4.70;99.90;;;;;;5070931;28;20046;-82
2022/11/12 06:01:57;;;;;;;30.83;17.30;;;;;;;;;;5087087;28;20085;-83
2022/11/12 06:04:41;;;;;;;25.50;16.53;;;;;;;;;;5079326;28;20074;-82
2022/11/12 06:07:26;;;;;;;27.57;16.23;;;;;;;;;;5079287;28;20137;-82
2022/11/12 06:10:10;;;;;;;26.98;16.27;;;;;;;;;;5088665;28;20112;-82
2022/11/12 06:12:55;;;;;;;31.53;16.87;;;;;;;;;;5080419;28;20052;-83
2022/11/12 06:15:39;;;;;;;27.33;16.80;;;;;;;;;;5077864;28;20155;-83
2022/11/12 06:18:24;;;;;;;22.83;15.18;;;;;;;;;;5107428;28;20537;-82
2022/11/12 06:21:19;;;;;;;28.27;15.73;;;4.50;99.90;;;;;;5093751;28;20042;-82
2022/11/12 06:24:03;;;;;;;32.20;18.05;;;4.10;99.90;;;;;;5106103;28;20450;-82
2022/11/12 06:26:48;;;;;;;24.03;15.73;;;;;;;;;;5078216;28;20038;-83
2022/11/12 06:29:33;;;;;;;29.65;17.23;;;;;;;;;;5078752;28;20035;-82
2022/11/12 06:32:18;;;;;;;26.10;15.30;;;;;;;;;;5094153;28;20074;-82
2022/11/12 06:35:03;;;;;;;24.03;15.10;;;;;;;;;;5078227;28;20077;-82
2022/11/12 06:37:48;;;;;;;25.80;16.90;;;4.40;99.90;;;;;;5077387;28;20047;-82
2022/11/12 06:40:33;;;;;;;29.58;17.40;;;;;;;;;;5078852;28;20089;-82
2022/11/12 06:43:18;;;;;;;25.25;15.57;;;;;;;;;;5093198;28;20059;-82
2022/11/12 06:46:05;;;;;;;26.63;16.73;;;4.40;99.90;;;;;;5077996;28;20051;-83
2022/11/12 06:48:50;;;;;;;33.55;18.20;;;;;;;;;;5093906;28;20027;-82
2022/11/12 06:51:35;;;;;;;28.55;16.55;;;;;;;;;;5078323;28;20039;-83
2022/11/12 06:54:19;;;;;;;27.23;16.83;;;;;;;;;;5096275;28;20088;-83
2022/11/12 06:57:03;;;;;;;26.52;17.52;;;;;;;;;;5085892;28;20547;-82
2022/11/12 06:59:48;;;;;;;31.73;18.90;;;;;;;;;;5094768;28;20403;-83
2022/11/12 07:02:33;;;;;;;41.60;22.17;;;;;;;;;;5103922;28;20085;-83
2022/11/12 07:05:17;;;;;;;39.67;21.55;;;;;;;;;;5106217;28;20101;-83
2022/11/12 07:08:02;;;;;;;43.45;20.92;;;;;;;;;;5090200;28;20089;-83
2022/11/12 07:10:47;;;;;;;79.30;25.58;;;;;;;;;;5105211;28;20047;-83
2022/11/12 07:13:32;;;;;;;80.33;24.77;;;5.10;99.90;;;;;;5106536;28;20048;-84
2022/11/12 07:16:17;;;;;;;89.20;28.40;;;;;;;;;;5088766;28;20425;-83
2022/11/12 07:19:02;;;;;;;78.07;28.17;;;;;;;;;;5080782;28;20066;-83
2022/11/12 07:21:46;;;;;;;98.15;26.40;;;;;;;;;;5083724;28;20097;-84
2022/11/12 07:24:31;;;;;;;94.03;28.05;;;;;;;;;;5106207;28;20490;-83
2022/11/12 07:27:15;;;;;;;163.38;29.75;;;;;;;;;;5105861;28;20552;-83
2022/11/12 07:30:00;;;;;;;133.93;29.05;;;;;;;;;;5091151;28;20031;-83
2022/11/12 07:32:44;;;;;;;98.53;26.80;;;;;;;;;;5071625;28;20074;-83
2022/11/12 07:35:29;;;;;;;145.10;31.90;;;;;;;;;;5106262;28;20514;-83
2022/11/12 07:38:15;;;;;;;98.40;26.27;;;;;;;;;;5103043;28;20074;-83
2022/11/12 07:41:09;;;;;;;147.52;30.20;;;6.30;99.90;;;;;;5091660;28;20063;-83
2022/11/12 07:43:54;;;;;;;126.40;28.85;;;;;;;;;;5096573;28;20055;-82
2022/11/12 07:46:38;;;;;;;161.93;31.65;;;;;;;;;;5112815;28;20392;-82
2022/11/12 07:49:23;;;;;;;108.60;26.08;;;;;;;;;;5112507;28;20043;-82
2022/11/12 07:52:08;;;;;;;105.25;26.42;;;;;;;;;;5112551;28;20038;-81
2022/11/12 07:54:52;;;;;;;131.50;28.15;;;;;;;;;;5071321;28;20046;-82
2022/11/12 07:57:37;;;;;;;170.35;30.50;;;;;;;;;;5107319;28;20035;-83
2022/11/12 08:00:22;;;;;;;98.05;24.67;;;6.00;99.90;;;;;;5099579;28;20047;-82
2022/11/12 08:03:07;;;;;;;135.70;29.42;;;;;;;;;;5076953;28;20077;-82
2022/11/12 08:05:51;;;;;;;80.40;24.50;;;;;;;;;;5077249;28;20047;-82
2022/11/12 08:08:36;;;;;;;79.30;24.20;;;;;;;;;;5071030;28;20032;-81
2022/11/12 08:11:21;;;;;;;73.93;24.63;;;;;;;;;;5093196;28;20054;-82
2022/11/12 08:14:05;;;;;;;163.13;30.75;;;;;;;;;;5092103;28;20407;-82
2022/11/12 08:16:50;;;;;;;205.25;30.88;;;;;;;;;;5100053;28;20082;-82
2022/11/12 08:19:34;;;;;;;132.93;27.48;;;;;;;;;;5099712;28;20085;-82
2022/11/12 08:22:19;;;;;;;178.50;30.10;;;;;;;;;;5092735;28;20034;-82
2022/11/12 08:25:03;;;;;;;223.32;32.22;;;6.30;99.90;;;;;;5082358;28;20047;-82
2022/11/12 08:27:48;;;;;;;232.95;35.05;;;;;;;;;;5087026;28;20494;-82
2022/11/12 08:30:32;;;;;;;261.58;36.00;;;;;;;;;;5101277;28;20057;-82
2022/11/12 08:33:17;;;;;;;184.13;32.80;;;;;;;;;;5100726;28;20034;-82
2022/11/12 08:36:07;;;;;;;120.00;27.67;;;6.70;99.90;;;;;;5093613;28;20047;-82
2022/11/12 08:38:53;;;;;;;202.98;32.53;;;;;;;;;;5104093;28;20078;-82
2022/11/12 08:41:37;;;;;;;204.23;33.92;;;;;;;;;;5099533;28;20054;-83
2022/11/12 08:44:22;;;;;;;253.13;35.03;;;;;;;;;;5106506;28;20059;-82
2022/11/12 08:47:07;;;;;;;220.57;33.97;;;;;;;;;;5089379;28;20034;-83
2022/11/12 08:49:51;;;;;;;230.93;37.10;;;;;;;;;;5105852;28;20084;-82
2022/11/12 08:52:36;;;;;;;163.07;29.40;;;;;;;;;;5094808;28;20078;-82
2022/11/12 08:55:20;;;;;;;271.00;40.35;;;;;;;;;;5093786;28;20526;-82
2022/11/12 08:58:05;;;;;;;176.77;31.27;;;;;;;;;;5110817;28;20493;-81
2022/11/12 09:00:51;;;;;;;202.15;34.15;;;7.00;99.90;;;;;;5113347;28;20510;-82
2022/11/12 09:03:36;;;;;;;199.00;36.47;;;;;;;;;;5080267;28;20085;-81
2022/11/12 09:06:20;;;;;;;161.80;32.15;;;;;;;;;;5108907;28;20066;-83
2022/11/12 09:09:05;;;;;;;224.20;37.10;;;;;;;;;;5110934;28;20447;-83
2022/11/12 09:11:50;;;;;;;330.40;41.05;;;;;;;;;;5089104;28;20044;-82
2022/11/12 09:14:35;;;;;;;388.77;47.35;;;;;;;;;;5092673;28;20462;-82
2022/11/12 09:17:19;;;;;;;189.32;33.17;;;;;;;;;;5087213;28;20078;-82
2022/11/12 09:20:04;;;;;;;390.83;50.65;;;7.40;99.90;;;;;;5081040;28;20043;-82
2022/11/12 09:22:48;;;;;;;197.90;38.63;;;;;;;;;;5104810;28;20120;-82
2022/11/12 09:25:33;;;;;;;233.75;37.85;;;;;;;;;;5115242;28;20031;-81
2022/11/12 09:28:18;;;;;;;322.58;48.13;;;;;;;;;;5080644;28;20392;-83
2022/11/12 09:31:03;;;;;;;300.13;46.67;;;;;;;;;;5100949;28;20066;-82
2022/11/12 09:33:47;;;;;;;326.08;52.53;;;;;;;;;;5092552;28;20070;-82
2022/11/12 09:36:32;;;;;;;224.43;41.38;;;;;;;;;;5112046;28;21259;-82
2022/11/12 09:39:16;;;;;;;153.43;35.70;;;;;;;;;;5114223;28;20046;-81
2022/11/12 09:42:16;;;;;;;154.57;36.72;;;7.50;99.90;;;;;;5094409;28;20047;-83
2022/11/12 09:45:12;;;;;;;240.38;43.03;;;7.60;99.90;;;;;;5091928;28;20123;-82
2022/11/12 09:48:02;;;;;;;122.57;34.42;;;7.60;99.90;;;;;;5098390;28;20066;-82
2022/11/12 09:51:01;;;;;;;194.88;39.13;;;8.50;99.90;;;;;;5103529;28;20510;-83
2022/11/12 09:54:18;;;;;;;87.80;36.90;;;7.60;99.90;;;;;;5110550;28;20031;-82
2022/11/12 09:57:02;;;;;;;98.22;33.83;;;;;;;;;;5110284;28;20073;-82
2022/11/12 09:59:47;;;;;;;166.77;37.83;;;;;;;;;;5086981;28;20075;-82
2022/11/12 10:02:34;;;;;;;87.65;31.70;;;7.80;99.90;;;;;;5065104;28;20046;-82
2022/11/12 10:05:32;;;;;;;110.68;35.30;;;7.90;99.90;;;;;;5111655;28;20096;-82
2022/11/12 10:08:40;;;;;;;62.83;32.15;;;7.90;99.90;;;;;;5100778;28;20553;-81
2022/11/12 10:18:37;;;;;;;65.45;33.20;;;8.10;99.90;;;;;;5107790;28;20069;-82
2022/11/12 10:21:46;;;;;;;47.85;28.98;;;7.90;99.90;;;;;;5089601;28;20130;-82
2022/11/12 10:24:36;;;;;;;46.95;27.75;;;8.00;99.90;;;;;;5080730;28;20499;-82
2022/11/12 10:27:26;;;;;;;46.25;27.45;;;8.30;99.90;;;;;;5093616;28;20399;-82
2022/11/12 10:30:16;;;;;;;44.65;27.52;;;8.30;99.90;;;;;;5102262;28;20077;-81
2022/11/12 10:33:00;;;;;;;45.60;26.38;;;;;;;;;;5106963;28;20538;-82
2022/11/12 10:35:45;;;;;;;49.20;27.30;;;;;;;;;;5097340;28;20039;-82
2022/11/12 10:38:33;;;;;;;52.90;30.75;;;8.40;99.90;;;;;;5093352;28;20116;-81
2022/11/12 10:41:21;;;;;;;48.88;29.05;;;8.60;99.90;;;;;;5086365;28;20165;-81
2022/11/12 10:44:11;;;;;;;39.55;24.85;;;8.70;99.90;;;;;;5113939;28;20057;-81
2022/11/12 10:47:18;;;;;;;45.20;25.55;;;8.80;99.90;;;;;;5092305;28;20600;-82
2022/11/12 10:50:03;;;;;;;35.50;22.20;;;;;;;;;;5103654;28;20035;-82
2022/11/12 10:53:02;;;;;;;36.53;23.42;;;8.80;99.90;;;;;;5090032;28;20460;-82
2022/11/12 10:56:01;;;;;;;36.30;23.67;;;8.90;99.90;;;;;;5084644;28;20077;-83
2022/11/12 10:59:08;;;;;;;33.45;20.55;;;9.00;99.90;;;;;;5088339;28;20042;-82
2022/11/12 11:01:57;;;;;;;31.70;21.40;;;9.10;99.90;;;;;;5100357;28;20031;-81
2022/11/12 11:04:42;;;;;;;28.55;19.00;;;;;;;;;;5077320;28;20520;-82
2022/11/12 11:07:27;;;;;;;23.45;17.42;;;;;;;;;;5081450;28;20088;-82
2022/11/12 11:10:23;;;;;;;24.40;16.20;;;9.30;99.90;;;;;;5079734;28;20093;-82
2022/11/12 11:13:21;;;;;;;22.50;15.07;;;9.40;99.90;;;;;;5099024;28;20038;-81
2022/11/12 11:16:10;;;;;;;25.92;14.07;;;9.50;99.90;;;;;;5081159;28;20043;-81
2022/11/12 11:18:57;;;;;;;19.60;15.10;;;9.50;99.90;;;;;;5105801;28;20502;-81
2022/11/12 11:21:58;;;;;;;18.75;14.38;;;9.70;99.90;;;;;;5097706;28;20039;-81
2022/11/12 11:25:00;;;;;;;17.23;14.23;;;9.70;99.90;;;;;;5112690;28;20030;-82
2022/11/12 11:28:21;;;;;;;17.83;14.27;;;9.80;99.90;;;;;;5112746;28;20034;-82
2022/11/12 11:31:35;;;;;;;18.35;13.23;;;10.50;99.90;;;;;;5113204;28;20407;-82
2022/11/12 11:34:43;;;;;;;17.77;13.40;;;10.20;99.90;;;;;;5079004;28;20030;-81
2022/11/12 11:37:31;;;;;;;19.38;13.10;;;10.20;99.90;;;;;;5083214;28;20046;-81
2022/11/12 11:40:58;;;;;;;20.05;13.70;;;11.10;99.90;;;;;;5112472;28;20036;-82
2022/11/12 11:44:28;;;;;;;21.42;13.57;;;10.50;99.90;;;;;;5037959;28;20499;-82
2022/11/12 11:47:25;;;;;;;18.05;12.43;;;10.60;99.90;;;;;;5093547;28;20047;-82
2022/11/12 11:50:41;;;;;;;16.60;12.50;;;10.60;99.90;;;;;;5079669;28;20043;-81
2022/11/12 11:53:44;;;;;;;15.05;12.38;;;10.70;99.90;;;;;;5086417;28;20085;-82
2022/11/12 11:56:34;;;;;;;17.97;12.47;;;11.70;99.90;;;;;;5091366;28;20054;-81
2022/11/12 11:59:40;;;;;;;15.93;11.63;;;11.10;99.90;;;;;;5086745;28;20035;-81
2022/11/12 12:02:51;;;;;;;16.42;11.40;;;11.20;99.90;;;;;;5098110;28;20046;-82
2022/11/12 12:05:44;;;;;;;18.10;12.25;;;11.30;99.90;;;;;;5106535;28;20398;-82
2022/11/12 12:08:58;;;;;;;18.50;11.95;;;11.30;99.90;;;;;;5102433;28;20034;-82
2022/11/12 12:11:42;;;;;;;12.90;10.32;;;;;;;;;;5109827;28;20086;-82
2022/11/12 12:14:27;;;;;;;24.08;11.18;;;;;;;;;;5110269;28;20137;-82
2022/11/12 12:17:57;;;;;;;15.30;11.13;;;12.10;99.90;;;;;;5112955;28;20100;-82
2022/11/12 12:20:42;;;;;;;14.23;10.95;;;;;;;;;;5003719;28;20536;-83
2022/11/12 12:23:39;;;;;;;14.27;11.32;;;11.70;99.90;;;;;;5012753;28;20083;-82
2022/11/12 12:26:29;;;;;;;17.83;11.32;;;11.70;99.90;;;;;;5090206;28;20123;-82
2022/11/12 12:29:21;;;;;;;13.50;10.20;;;11.80;99.90;;;;;;5097306;28;20054;-82
2022/11/12 12:32:17;;;;;;;14.05;11.02;;;11.90;99.90;;;;;;5109335;28;20078;-83
2022/11/12 12:35:14;;;;;;;14.48;11.18;;;11.90;99.90;;;;;;5112013;28;20038;-82
2022/11/12 12:38:21;;;;;;;14.57;12.18;;;11.80;99.90;;;;;;5112129;28;20572;-83
2022/11/12 12:41:29;;;;;;;13.88;10.57;;;12.00;99.90;;;;;;5104209;28;20042;-82
2022/11/12 12:44:14;;;;;;;13.90;10.32;;;;;;;;;;5102244;28;20553;-82
2022/11/12 12:47:01;;;;;;;13.38;9.73;;;12.00;99.90;;;;;;5111903;28;20455;-82
2022/11/12 12:49:46;;;;;;;13.63;10.20;;;12.00;99.90;;;;;;5112437;28;20030;-82
2022/11/12 12:53:09;;;;;;;14.73;9.95;;;12.00;99.90;;;;;;5096739;28;20035;-82
2022/11/12 12:55:59;;;;;;;15.63;10.18;;;12.10;99.90;;;;;;5087858;28;20067;-82
2022/11/12 12:58:48;;;;;;;15.52;10.35;;;12.00;99.90;;;;;;5105524;28;20068;-82
2022/11/12 13:01:35;;;;;;;12.43;9.20;;;12.10;99.90;;;;;;5103663;28;20085;-82
2022/11/12 13:04:49;;;;;;;11.70;9.73;;;12.10;99.90;;;;;;5095459;28;20088;-82
2022/11/12 13:07:43;;;;;;;14.43;9.43;;;12.10;99.90;;;;;;5099188;28;20039;-82
2022/11/12 13:10:47;;;;;;;12.20;9.07;;;12.20;99.90;;;;;;5095952;28;20031;-82
2022/11/12 13:13:34;;;;;;;14.38;9.50;;;12.20;99.90;;;;;;5095762;28;20537;-82
2022/11/12 13:16:54;;;;;;;12.40;9.85;;;12.20;99.90;;;;;;5095505;28;20035;-82
2022/11/12 13:19:52;;;;;;;16.13;9.70;;;12.40;99.90;;;;;;5095253;28;20055;-82
2022/11/12 13:22:37;;;;;;;13.30;9.65;;;;;;;;;;5095309;28;20153;-82
2022/11/12 13:25:22;;;;;;;13.48;9.23;;;;;;;;;;5104247;28;20050;-82
2022/11/12 13:28:08;;;;;;;13.35;10.07;;;12.40;99.90;;;;;;5097573;28;20039;-82
2022/11/12 13:30:53;;;;;;;14.98;9.35;;;;;;;;;;5094997;28;20211;-83
2022/11/12 13:33:38;;;;;;;14.20;10.23;;;;;;;;;;5086720;28;20038;-83
2022/11/12 13:36:28;;;;;;;13.55;9.60;;;12.50;99.90;;;;;;5084628;28;20105;-82
2022/11/12 13:39:15;;;;;;;11.85;8.52;;;12.60;99.90;;;;;;5094745;28;20059;-82
2022/11/12 13:45:12;;;;;;;13.27;9.77;;;;;;;;;;5096940;28;20097;-82
2022/11/12 13:47:57;;;;;;;11.75;8.82;;;;;;;;;;5094603;28;20043;-82
2022/11/12 13:50:47;;;;;;;15.88;9.00;;;12.70;99.90;;;;;;5079792;28;20038;-82
2022/11/12 13:53:32;;;;;;;12.52;8.95;;;;;;;;;;5097480;28;20096;-82
2022/11/12 13:56:29;;;;;;;13.93;9.57;;;12.60;99.90;;;;;;5103500;28;20093;-82
2022/11/12 13:59:19;;;;;;;16.77;9.30;;;12.60;99.90;;;;;;5093372;28;20082;-83
2022/11/12 14:02:15;;;;;;;12.52;8.98;;;12.50;99.90;;;;;;5094319;28;20540;-83
2022/11/12 14:05:00;;;;;;;12.93;9.35;;;12.40;99.90;;;;;;5079055;28;20070;-82
2022/11/12 14:08:00;;;;;;;11.48;9.20;;;12.40;99.90;;;;;;5079170;28;20046;-82
2022/11/12 14:10:45;;;;;;;13.25;9.60;;;;;;;;;;5094521;28;20042;-83
2022/11/12 14:14:06;;;;;;;12.27;8.88;;;12.40;99.90;;;;;;5094576;28;20092;-82
2022/11/12 14:17:02;;;;;;;13.52;9.45;;;12.30;99.90;;;;;;5094371;28;20081;-83
2022/11/12 14:20:26;;;;;;;13.77;8.98;;;12.30;99.90;;;;;;5078915;28;20035;-82
2022/11/12 14:23:18;;;;;;;13.10;9.70;;;12.20;99.90;;;;;;5093762;28;20487;-82
2022/11/12 14:26:04;;;;;;;10.88;8.43;;;;;;;;;;5093696;28;20086;-82
2022/11/12 14:28:55;;;;;;;13.57;9.07;;;12.10;99.90;;;;;;5094192;28;20035;-82
2022/11/12 14:31:40;;;;;;;15.10;9.20;;;;;;;;;;5098718;28;20474;-82
2022/11/12 14:34:33;;;;;;;12.95;9.52;;;12.10;99.90;;;;;;5085880;28;20047;-82
2022/11/12 14:37:37;;;;;;;13.15;9.45;;;11.90;99.90;;;;;;5087434;28;20070;-82
2022/11/12 14:40:24;;;;;;;16.20;9.23;;;11.90;99.90;;;;;;5114130;28;20070;-83
2022/11/12 14:43:31;;;;;;;14.15;9.60;;;11.80;99.90;;;;;;5083265;28;20438;-82
2022/11/12 14:46:28;;;;;;;13.52;9.63;;;11.90;99.90;;;;;;5094229;28;20043;-83
2022/11/12 14:49:34;;;;;;;13.48;9.10;;;11.80;99.90;;;;;;5093517;28;20039;-83
2022/11/12 14:52:22;;;;;;;13.15;9.45;;;11.70;99.90;;;;;;5093362;28;20113;-83
2022/11/12 14:55:19;;;;;;;13.25;9.57;;;11.70;99.90;;;;;;5107448;28;20092;-82
2022/11/12 14:58:04;;;;;;;12.80;10.07;;;;;;;;;;5101211;28;20035;-83
2022/11/12 15:00:51;;;;;;;13.85;9.35;;;11.60;99.90;;;;;;5084240;28;20152;-82
2022/11/12 15:03:36;;;;;;;12.82;10.00;;;;;;;;;;5102261;28;20047;-82
2022/11/12 15:06:29;;;;;;;12.88;9.32;;;11.60;99.90;;;;;;5077827;28;20115;-82
2022/11/12 15:09:20;;;;;;;12.52;9.73;;;11.50;99.90;;;;;;5092949;28;20400;-83
2022/11/12 15:12:10;;;;;;;13.77;9.63;;;11.50;99.90;;;;;;5093118;28;20556;-84
2022/11/12 15:15:06;;;;;;;12.43;10.10;;;11.50;99.90;;;;;;5093309;28;20507;-82
2022/11/12 15:17:59;;;;;;;15.07;10.43;;;11.30;99.90;;;;;;5093060;28;20047;-83
2022/11/12 15:20:44;;;;;;;14.65;9.70;;;;;;;;;;5093367;28;20066;-82
2022/11/12 15:23:28;;;;;;;13.52;10.75;;;;;;;;;;5092790;28;20036;-83
2022/11/12 15:26:23;;;;;;;15.27;11.52;;;11.20;99.90;;;;;;5092623;28;20079;-83
2022/11/12 15:29:10;;;;;;;13.48;9.82;;;11.10;99.90;;;;;;5103981;28;20088;-83
2022/11/12 15:32:02;;;;;;;14.18;10.30;;;11.50;99.90;;;;;;5106860;28;20044;-82
2022/11/12 15:34:47;;;;;;;18.90;11.32;;;;;;;;;;5077722;28;20035;-82
2022/11/12 15:37:39;;;;;;;16.13;10.45;;;11.00;99.90;;;;;;5100424;28;20100;-82
2022/11/12 15:40:24;;;;;;;17.25;11.25;;;;;;;;;;5083680;28;20085;-82
2022/11/12 15:43:22;;;;;;;13.38;9.80;;;10.90;99.90;;;;;;5097615;28;20131;-83
2022/11/12 15:46:13;;;;;;;16.70;11.15;;;10.80;99.90;;;;;;5077510;28;20043;-82
2022/11/12 15:48:58;;;;;;;16.95;11.63;;;;;;;;;;5092408;28;20132;-82
2022/11/12 15:51:43;;;;;;;22.20;13.35;;;;;;;;;;5092666;28;20043;-82
2022/11/12 15:54:27;;;;;;;22.23;13.85;;;;;;;;;;5102672;28;20034;-83
2022/11/12 15:57:24;;;;;;;22.33;14.10;;;10.50;99.90;;;;;;5078670;28;20089;-83
2022/11/12 16:00:23;;;;;;;20.98;12.93;;;10.40;99.90;;;;;;5102035;28;20061;-82